createdAt,value
2022-07-25T00:01:02.693Z,0
2022-07-25T00:02:02.969Z,0
2022-07-25T00:02:58.913Z,0
2022-07-25T00:04:01.656Z,0
2022-07-25T00:05:00.751Z,0
2022-07-25T00:05:58.651Z,0
2022-07-25T00:06:58.633Z,0
2022-07-25T00:07:58.658Z,0
2022-07-25T00:08:58.640Z,0
2022-07-25T00:09:58.652Z,0
2022-07-25T00:10:58.878Z,0
2022-07-25T00:11:58.638Z,0
2022-07-25T00:12:58.612Z,0
2022-07-25T00:13:58.359Z,0
2022-07-25T00:14:58.358Z,0
2022-07-25T00:15:59.436Z,0
2022-07-25T00:16:58.605Z,0
2022-07-25T00:17:58.635Z,0
2022-07-25T00:18:58.607Z,0
2022-07-25T00:19:58.336Z,0
2022-07-25T00:20:58.609Z,0
2022-07-25T00:21:58.583Z,0
2022-07-25T00:22:58.828Z,0
2022-07-25T00:23:58.313Z,0
2022-07-25T00:24:58.054Z,0
2022-07-25T00:25:58.588Z,0
2022-07-25T00:26:58.337Z,0
2022-07-25T00:27:58.811Z,0
2022-07-25T00:28:58.828Z,0
2022-07-25T00:29:58.827Z,0
2022-07-25T00:30:58.935Z,0
2022-07-25T00:31:58.933Z,0
2022-07-25T00:32:58.282Z,0
2022-07-25T00:33:58.019Z,0
2022-07-25T00:34:59.699Z,0
2022-07-25T00:35:58.262Z,0
2022-07-25T00:36:58.534Z,0
2022-07-25T00:37:59.304Z,0
2022-07-25T00:38:58.783Z,0
2022-07-25T00:39:59.298Z,0
2022-07-25T00:41:05.022Z,0
2022-07-25T00:41:59.043Z,0
2022-07-25T00:42:58.772Z,0
2022-07-25T00:43:59.305Z,0
2022-07-25T00:44:59.029Z,0
2022-07-25T00:45:59.432Z,0
2022-07-25T00:46:59.424Z,0
2022-07-25T00:47:58.775Z,0
2022-07-25T00:48:59.796Z,0
2022-07-25T00:49:58.994Z,0
2022-07-25T00:50:58.777Z,0
2022-07-25T00:51:58.986Z,0
2022-07-25T00:52:59.011Z,0
2022-07-25T00:53:58.969Z,0
2022-07-25T00:54:58.986Z,0
2022-07-25T00:55:59.379Z,0
2022-07-25T00:56:58.961Z,0
2022-07-25T00:57:59.205Z,0
2022-07-25T00:58:58.953Z,0
2022-07-25T00:59:58.442Z,0
2022-07-25T01:00:58.949Z,0
2022-07-25T01:01:58.847Z,0
2022-07-25T01:03:00.860Z,0
2022-07-25T01:04:00.146Z,0
2022-07-25T01:04:59.197Z,0
2022-07-25T01:06:02.788Z,0
2022-07-25T01:06:59.181Z,0
2022-07-25T01:07:58.920Z,0
2022-07-25T01:08:58.910Z,0
2022-07-25T01:09:58.979Z,0
2022-07-25T01:10:59.166Z,0
2022-07-25T01:11:58.900Z,0
2022-07-25T01:12:59.171Z,0
2022-07-25T01:13:58.884Z,0
2022-07-25T01:14:58.879Z,0
2022-07-25T01:15:59.244Z,0
2022-07-25T01:16:59.887Z,0
2022-07-25T01:17:59.123Z,0
2022-07-25T01:18:58.876Z,0
2022-07-25T01:19:59.118Z,0
2022-07-25T01:20:59.113Z,0
2022-07-25T01:21:59.113Z,0
2022-07-25T01:22:59.109Z,0
2022-07-25T01:23:58.589Z,0
2022-07-25T01:24:59.943Z,0
2022-07-25T01:25:58.861Z,0
2022-07-25T01:26:59.092Z,0
2022-07-25T01:28:04.185Z,0
2022-07-25T01:28:59.073Z,0
2022-07-25T01:29:58.562Z,0
2022-07-25T01:30:59.204Z,0
2022-07-25T01:31:59.077Z,0
2022-07-25T01:32:58.807Z,0
2022-07-25T01:33:59.091Z,0
2022-07-25T01:35:30.620Z,0
2022-07-25T01:35:58.787Z,0
2022-07-25T01:36:58.803Z,0
2022-07-25T01:37:58.535Z,0
2022-07-25T01:39:03.322Z,0
2022-07-25T01:39:59.041Z,0
2022-07-25T01:40:58.502Z,0
2022-07-25T01:41:58.503Z,0
2022-07-25T01:42:58.516Z,0
2022-07-25T01:43:58.769Z,0
2022-07-25T01:44:58.491Z,0
2022-07-25T01:45:59.721Z,0
2022-07-25T01:46:59.171Z,0
2022-07-25T01:47:58.474Z,0
2022-07-25T01:48:59.135Z,0
2022-07-25T01:49:58.723Z,0
2022-07-25T01:50:59.569Z,0
2022-07-25T01:51:58.459Z,0
2022-07-25T01:52:58.703Z,0
2022-07-25T01:53:59.893Z,0
2022-07-25T01:54:59.837Z,0
2022-07-25T01:56:05.161Z,0
2022-07-25T01:56:58.696Z,0
2022-07-25T01:58:00.191Z,0
2022-07-25T01:58:58.935Z,0
2022-07-25T01:59:58.433Z,0
2022-07-25T02:00:58.197Z,0
2022-07-25T02:01:59.509Z,0
2022-07-25T02:02:58.679Z,0
2022-07-25T02:03:58.671Z,0
2022-07-25T02:04:59.374Z,0
2022-07-25T02:05:58.694Z,0
2022-07-25T02:06:58.912Z,0
2022-07-25T02:07:58.903Z,0
2022-07-25T02:08:59.480Z,0
2022-07-25T02:10:04.104Z,0
2022-07-25T02:10:58.134Z,0
2022-07-25T02:11:58.895Z,0
2022-07-25T02:12:58.882Z,0
2022-07-25T02:13:58.878Z,0
2022-07-25T02:14:58.863Z,0
2022-07-25T02:15:58.618Z,0
2022-07-25T02:16:58.944Z,0
2022-07-25T02:17:58.605Z,0
2022-07-25T02:18:58.607Z,0
2022-07-25T02:19:58.929Z,0
2022-07-25T02:20:58.069Z,0
2022-07-25T02:21:58.579Z,0
2022-07-25T02:22:58.850Z,0
2022-07-25T02:23:58.825Z,0
2022-07-25T02:24:58.561Z,0
2022-07-25T02:25:58.554Z,0
2022-07-25T02:26:59.637Z,0
2022-07-25T02:27:58.555Z,0
2022-07-25T02:28:58.333Z,0
2022-07-25T02:29:58.565Z,0
2022-07-25T02:30:58.981Z,0
2022-07-25T02:31:58.807Z,0
2022-07-25T02:32:58.593Z,0
2022-07-25T02:33:59.338Z,0
2022-07-25T02:34:58.771Z,0
2022-07-25T02:35:58.520Z,0
2022-07-25T02:36:58.540Z,0
2022-07-25T02:37:58.506Z,0
2022-07-25T02:38:58.765Z,0
2022-07-25T02:39:58.779Z,0
2022-07-25T02:40:58.525Z,0
2022-07-25T02:41:58.736Z,0
2022-07-25T02:42:58.746Z,0
2022-07-25T02:43:58.488Z,0
2022-07-25T02:44:58.733Z,0
2022-07-25T02:45:58.887Z,0
2022-07-25T02:46:57.962Z,0
2022-07-25T02:47:59.107Z,0
2022-07-25T02:48:59.288Z,0
2022-07-25T02:49:58.727Z,0
2022-07-25T02:50:58.449Z,0
2022-07-25T02:51:58.449Z,0
2022-07-25T02:52:58.189Z,0
2022-07-25T02:54:07.790Z,0
2022-07-25T02:54:58.965Z,0
2022-07-25T02:56:00.997Z,0
2022-07-25T02:56:58.674Z,0
2022-07-25T02:57:58.689Z,0
2022-07-25T02:58:58.813Z,0
2022-07-25T02:59:58.655Z,0
2022-07-25T03:00:58.906Z,0
2022-07-25T03:02:00.112Z,0
2022-07-25T03:02:58.641Z,0
2022-07-25T03:03:59.201Z,0
2022-07-25T03:04:58.644Z,0
2022-07-25T03:05:58.488Z,0
2022-07-25T03:06:58.630Z,0
2022-07-25T03:07:58.629Z,0
2022-07-25T03:08:58.787Z,0
2022-07-25T03:09:58.366Z,0
2022-07-25T03:10:58.353Z,0
2022-07-25T03:11:57.835Z,0
2022-07-25T03:12:58.601Z,0
2022-07-25T03:13:58.405Z,0
2022-07-25T03:14:58.588Z,0
2022-07-25T03:15:59.965Z,0
2022-07-25T03:16:58.977Z,0
2022-07-25T03:17:58.328Z,0
2022-07-25T03:18:58.336Z,0
2022-07-25T03:19:57.801Z,0
2022-07-25T03:20:58.665Z,0
2022-07-25T03:21:58.573Z,0
2022-07-25T03:22:58.756Z,0
2022-07-25T03:24:02.803Z,0
2022-07-25T03:24:58.290Z,0
2022-07-25T03:25:58.547Z,0
2022-07-25T03:26:58.292Z,5
2022-07-25T03:27:58.525Z,5
2022-07-25T03:28:58.271Z,5
2022-07-25T03:29:58.516Z,5
2022-07-25T03:30:58.272Z,5
2022-07-25T03:31:58.915Z,5
2022-07-25T03:32:58.248Z,5
2022-07-25T03:50:23.216Z,15
2022-07-25T03:51:22.697Z,15
2022-07-25T03:52:22.932Z,20
2022-07-25T03:53:22.678Z,20
2022-07-25T03:54:23.514Z,20
2022-07-25T03:55:23.192Z,20
2022-07-25T03:56:22.679Z,20
2022-07-25T03:57:23.153Z,20
2022-07-25T03:58:23.138Z,25
2022-07-25T03:59:23.134Z,25
2022-07-25T04:00:23.152Z,25
2022-07-25T04:01:24.704Z,25
2022-07-25T04:02:23.467Z,30
2022-07-25T04:03:22.594Z,30
2022-07-25T04:04:22.857Z,30
2022-07-25T04:05:22.598Z,30
2022-07-25T04:06:22.576Z,35
2022-07-25T04:07:23.093Z,35
2022-07-25T04:08:23.114Z,35
2022-07-25T04:09:22.812Z,35
2022-07-25T04:10:22.298Z,40
2022-07-25T04:11:22.814Z,40
2022-07-25T04:12:22.543Z,40
2022-07-25T04:13:22.535Z,40
2022-07-25T04:14:23.051Z,40
2022-07-25T04:15:23.236Z,45
2022-07-25T04:16:32.797Z,45
2022-07-25T04:17:27.637Z,45
2022-07-25T04:18:36.724Z,45
2022-07-25T04:19:24.734Z,45
2022-07-25T04:20:23.136Z,45
2022-07-25T04:21:23.018Z,45
2022-07-25T04:22:22.760Z,50
2022-07-25T04:23:23.000Z,50
2022-07-25T04:24:22.740Z,50
2022-07-25T04:25:22.996Z,50
2022-07-25T04:26:22.729Z,50
2022-07-25T04:27:22.496Z,55
2022-07-25T04:28:22.748Z,55
2022-07-25T04:29:22.717Z,55
2022-07-25T04:30:33.636Z,55
2022-07-25T04:31:22.975Z,55
2022-07-25T04:32:30.094Z,55
2022-07-25T04:33:22.432Z,60
2022-07-25T04:34:22.686Z,60
2022-07-25T04:35:22.697Z,60
2022-07-25T04:36:22.685Z,60
2022-07-25T04:37:22.302Z,60
2022-07-25T04:38:22.681Z,60
2022-07-25T04:39:23.095Z,65
2022-07-25T04:40:22.573Z,65
2022-07-25T04:41:22.831Z,65
2022-07-25T04:42:22.817Z,65
2022-07-25T04:43:22.819Z,65
2022-07-25T04:44:23.061Z,65
2022-07-25T04:45:25.043Z,65
2022-07-25T04:46:23.198Z,65
2022-07-25T04:47:22.706Z,65
2022-07-25T04:48:23.291Z,65
2022-07-25T04:49:23.458Z,65
2022-07-25T04:50:29.052Z,70
2022-07-25T04:51:23.379Z,70
2022-07-25T04:52:23.263Z,75
2022-07-25T04:53:23.369Z,75
2022-07-25T04:54:23.112Z,75
2022-07-25T04:55:23.346Z,80
2022-07-25T04:56:22.843Z,80
2022-07-25T04:57:23.346Z,80
2022-07-25T04:58:23.354Z,80
2022-07-25T04:59:22.563Z,80
2022-07-25T05:00:25.154Z,80
2022-07-25T05:01:23.734Z,80
2022-07-25T05:02:23.709Z,80
2022-07-25T05:03:23.308Z,80
2022-07-25T05:04:23.044Z,80
2022-07-25T05:05:30.892Z,80
2022-07-25T05:06:24.112Z,80
2022-07-25T05:07:23.172Z,80
2022-07-25T05:08:22.541Z,85
2022-07-25T05:09:23.316Z,85
2022-07-25T05:10:23.040Z,85
2022-07-25T05:11:23.269Z,85
2022-07-25T05:12:23.350Z,85
2022-07-25T05:13:25.524Z,85
2022-07-25T05:14:25.395Z,85
2022-07-25T05:15:23.003Z,85
2022-07-25T05:16:23.216Z,85
2022-07-25T05:17:22.754Z,85
2022-07-25T05:18:23.263Z,85
2022-07-25T05:19:23.257Z,90
2022-07-25T05:20:22.753Z,90
2022-07-25T05:21:23.653Z,90
2022-07-25T05:22:30.603Z,90
2022-07-25T05:23:23.232Z,90
2022-07-25T05:24:23.239Z,90
2022-07-25T05:25:23.003Z,95
2022-07-25T05:26:22.719Z,95
2022-07-25T05:27:23.000Z,95
2022-07-25T05:28:22.976Z,95
2022-07-25T05:29:22.975Z,95
2022-07-25T05:30:22.953Z,95
2022-07-25T05:31:23.076Z,95
2022-07-25T05:32:22.170Z,95
2022-07-25T05:33:22.707Z,95
2022-07-25T05:34:22.938Z,95
2022-07-25T05:35:22.430Z,100
2022-07-25T05:36:22.781Z,100
2022-07-25T05:37:22.442Z,100
2022-07-25T05:38:23.662Z,100
2022-07-25T05:39:22.698Z,100
2022-07-25T05:40:22.928Z,100
2022-07-25T05:41:22.670Z,100
2022-07-25T05:42:23.201Z,100
2022-07-25T05:43:22.908Z,100
2022-07-25T05:44:22.676Z,105
2022-07-25T05:45:22.912Z,105
2022-07-25T05:46:23.050Z,105
2022-07-25T05:47:23.059Z,105
2022-07-25T05:48:22.626Z,105
2022-07-25T05:49:23.282Z,105
2022-07-25T05:50:22.637Z,105
2022-07-25T05:51:25.569Z,105
2022-07-25T05:52:22.878Z,105
2022-07-25T05:53:22.626Z,105
2022-07-25T05:54:22.148Z,105
2022-07-25T05:55:23.153Z,110
2022-07-25T05:56:22.884Z,110
2022-07-25T05:57:23.124Z,110
2022-07-25T05:58:29.809Z,110
2022-07-25T05:59:22.875Z,110
2022-07-25T06:00:22.609Z,110
2022-07-25T06:01:23.205Z,110
2022-07-25T06:02:23.682Z,110
2022-07-25T06:03:23.550Z,110
2022-07-25T06:04:27.604Z,110
2022-07-25T06:05:23.099Z,110
2022-07-25T06:06:22.901Z,110
2022-07-25T06:07:26.590Z,110
2022-07-25T06:08:24.982Z,110
2022-07-25T06:09:22.589Z,110
2022-07-25T06:10:22.591Z,115
2022-07-25T06:11:23.405Z,115
2022-07-25T06:12:26.662Z,115
2022-07-25T06:13:28.233Z,115
2022-07-25T06:14:27.248Z,115
2022-07-25T06:15:36.120Z,115
2022-07-25T06:16:22.868Z,115
2022-07-25T06:17:23.104Z,115
2022-07-25T06:18:23.067Z,115
2022-07-25T06:19:22.312Z,115
2022-07-25T06:20:23.072Z,115
2022-07-25T06:21:22.811Z,115
2022-07-25T06:22:24.125Z,120
2022-07-25T06:23:27.642Z,120
2022-07-25T06:24:22.805Z,120
2022-07-25T06:25:22.813Z,120
2022-07-25T06:26:24.465Z,120
2022-07-25T06:27:34.377Z,120
2022-07-25T06:28:27.666Z,120
2022-07-25T06:29:23.060Z,120
2022-07-25T06:30:29.468Z,120
2022-07-25T06:31:22.869Z,120
2022-07-25T06:32:23.071Z,120
2022-07-25T06:33:23.041Z,120
2022-07-25T06:34:25.754Z,120
2022-07-25T06:35:22.603Z,120
2022-07-25T06:36:22.793Z,120
2022-07-25T06:37:22.792Z,125
2022-07-25T06:38:22.769Z,125
2022-07-25T06:39:24.052Z,125
2022-07-25T06:40:23.040Z,125
2022-07-25T06:41:22.773Z,125
2022-07-25T06:42:23.395Z,125
2022-07-25T06:43:22.554Z,125
2022-07-25T06:44:22.785Z,125
2022-07-25T06:45:22.271Z,130
2022-07-25T06:46:23.081Z,145
2022-07-25T06:47:22.775Z,185
2022-07-25T06:48:22.774Z,195
2022-07-25T06:49:22.411Z,255
2022-07-25T06:50:26.233Z,335
2022-07-25T06:51:22.530Z,330
2022-07-25T06:52:22.520Z,325
2022-07-25T06:53:22.768Z,345
2022-07-25T06:54:22.528Z,320
2022-07-25T06:55:22.768Z,275
2022-07-25T06:56:26.819Z,290
2022-07-25T06:57:23.009Z,350
2022-07-25T06:58:28.044Z,380
2022-07-25T06:59:23.104Z,385
2022-07-25T07:00:22.506Z,390
2022-07-25T07:01:23.023Z,390
2022-07-25T07:02:22.285Z,390
2022-07-25T07:03:22.929Z,390
2022-07-25T07:04:22.550Z,395
2022-07-25T07:05:23.487Z,390
2022-07-25T07:06:22.789Z,390
2022-07-25T07:07:22.788Z,390
2022-07-25T07:08:22.874Z,390
2022-07-25T07:09:22.616Z,390
2022-07-25T07:10:23.109Z,385
2022-07-25T07:11:22.795Z,385
2022-07-25T07:12:23.040Z,390
2022-07-25T07:13:29.091Z,390
2022-07-25T07:14:23.055Z,390
2022-07-25T07:15:22.807Z,390
2022-07-25T07:16:23.047Z,390
2022-07-25T07:17:22.824Z,385
2022-07-25T07:18:22.591Z,385
2022-07-25T07:19:22.589Z,385
2022-07-25T07:20:23.370Z,385
2022-07-25T07:21:31.650Z,385
2022-07-25T07:22:24.943Z,380
2022-07-25T07:23:27.117Z,385
2022-07-25T07:24:33.741Z,385
2022-07-25T07:25:24.508Z,385
2022-07-25T07:26:22.876Z,390
2022-07-25T07:27:26.407Z,395
2022-07-25T07:28:22.657Z,395
2022-07-25T07:29:22.656Z,395
2022-07-25T07:31:35.509Z,400
2022-07-25T07:32:34.815Z,400
2022-07-25T07:33:35.072Z,395
2022-07-25T07:34:35.344Z,395
2022-07-25T07:35:43.173Z,395
2022-07-25T07:36:35.101Z,400
2022-07-25T07:37:48.038Z,405
2022-07-25T07:38:35.129Z,410
2022-07-25T07:39:35.133Z,410
2022-07-25T07:40:34.637Z,405
2022-07-25T07:41:37.206Z,410
2022-07-25T07:42:34.635Z,410
2022-07-25T07:43:39.500Z,405
2022-07-25T07:44:34.667Z,405
2022-07-25T07:45:35.183Z,395
2022-07-25T07:46:35.878Z,375
2022-07-25T07:47:34.694Z,335
2022-07-25T07:48:35.025Z,280
2022-07-25T07:49:41.720Z,230
2022-07-25T07:50:35.275Z,210
2022-07-25T07:51:34.995Z,195
2022-07-25T07:52:35.518Z,185
2022-07-25T07:53:35.261Z,175
2022-07-25T07:54:35.519Z,170
2022-07-25T07:55:36.182Z,170
2022-07-25T07:56:36.665Z,165
2022-07-25T07:57:35.680Z,165
2022-07-25T07:58:35.699Z,165
2022-07-25T07:59:35.954Z,165
2022-07-25T08:00:35.968Z,165
2022-07-25T08:01:36.402Z,165
2022-07-25T08:02:36.348Z,160
2022-07-25T08:03:35.954Z,160
2022-07-25T08:04:35.505Z,160
2022-07-25T08:05:35.782Z,160
2022-07-25T08:06:35.787Z,160
2022-07-25T08:07:35.528Z,160
2022-07-25T08:08:40.593Z,160
2022-07-25T08:09:35.536Z,160
2022-07-25T08:10:36.336Z,160
2022-07-25T08:11:36.073Z,160
2022-07-25T08:12:36.630Z,160
2022-07-25T08:13:38.398Z,160
2022-07-25T08:14:36.217Z,160
2022-07-25T08:15:36.442Z,160
2022-07-25T08:16:36.053Z,160
2022-07-25T08:17:39.315Z,160
2022-07-25T08:18:36.138Z,160
2022-07-25T08:19:35.996Z,160
2022-07-25T08:20:47.704Z,160
2022-07-25T08:21:36.406Z,160
2022-07-25T08:22:35.900Z,160
2022-07-25T08:23:36.161Z,160
2022-07-25T08:24:36.707Z,160
2022-07-25T08:25:35.671Z,160
2022-07-25T08:26:36.193Z,160
2022-07-25T08:27:36.295Z,160
2022-07-25T08:28:35.957Z,160
2022-07-25T08:29:37.704Z,160
2022-07-25T08:30:35.513Z,160
2022-07-25T08:31:36.400Z,160
2022-07-25T08:32:36.084Z,160
2022-07-25T08:33:36.499Z,160
2022-07-25T08:34:36.819Z,160
2022-07-25T08:35:36.238Z,160
2022-07-25T08:36:41.619Z,160
2022-07-25T08:37:36.252Z,160
2022-07-25T08:38:36.007Z,155
2022-07-25T08:39:36.274Z,160
2022-07-25T08:40:36.537Z,155
2022-07-25T08:41:35.853Z,155
2022-07-25T08:42:35.765Z,155
2022-07-25T08:43:36.307Z,155
2022-07-25T08:44:36.575Z,155
2022-07-25T08:45:36.056Z,155
2022-07-25T08:46:36.860Z,155
2022-07-25T08:47:36.304Z,155
2022-07-25T08:48:36.229Z,155
2022-07-25T08:49:36.943Z,155
2022-07-25T08:50:36.315Z,155
2022-07-25T08:51:35.832Z,155
2022-07-25T08:52:35.822Z,155
2022-07-25T08:53:50.665Z,150
2022-07-25T08:54:36.566Z,150
2022-07-25T08:55:36.093Z,150
2022-07-25T08:56:36.475Z,150
2022-07-25T08:57:36.820Z,150
2022-07-25T08:58:36.361Z,150
2022-07-25T08:59:36.375Z,150
2022-07-25T09:00:36.374Z,150
2022-07-25T09:01:42.136Z,150
2022-07-25T09:02:36.622Z,155
2022-07-25T09:03:36.598Z,150
2022-07-25T09:04:36.146Z,150
2022-07-25T09:05:39.146Z,150
2022-07-25T09:06:36.242Z,150
2022-07-25T09:07:36.479Z,150
2022-07-25T09:08:36.495Z,150
2022-07-25T09:09:35.977Z,150
2022-07-25T09:10:36.525Z,150
2022-07-25T09:11:36.532Z,150
2022-07-25T09:12:36.506Z,150
2022-07-25T09:13:36.776Z,150
2022-07-25T09:14:37.208Z,150
2022-07-25T09:15:40.206Z,150
2022-07-25T09:16:39.039Z,150
2022-07-25T09:17:37.868Z,150
2022-07-25T09:18:36.264Z,150
2022-07-25T09:19:36.539Z,150
2022-07-25T09:20:36.543Z,150
2022-07-25T09:21:36.553Z,150
2022-07-25T09:22:36.037Z,150
2022-07-25T09:23:36.583Z,150
2022-07-25T09:24:36.051Z,150
2022-07-25T09:25:36.054Z,150
2022-07-25T09:26:38.264Z,150
2022-07-25T09:27:36.316Z,150
2022-07-25T09:28:36.859Z,150
2022-07-25T09:29:36.591Z,150
2022-07-25T09:30:36.349Z,150
2022-07-25T09:31:37.248Z,150
2022-07-25T09:32:36.602Z,150
2022-07-25T09:33:36.098Z,145
2022-07-25T09:34:36.356Z,145
2022-07-25T09:35:36.806Z,145
2022-07-25T09:36:36.370Z,145
2022-07-25T09:37:36.393Z,145
2022-07-25T09:38:36.640Z,145
2022-07-25T09:39:38.734Z,145
2022-07-25T09:40:36.386Z,145
2022-07-25T09:41:36.644Z,145
2022-07-25T09:42:36.144Z,145
2022-07-25T09:43:36.661Z,145
2022-07-25T09:44:36.409Z,145
2022-07-25T09:45:40.837Z,145
2022-07-25T09:46:37.141Z,145
2022-07-25T09:47:36.688Z,145
2022-07-25T09:48:37.073Z,145
2022-07-25T09:49:36.698Z,140
2022-07-25T09:50:35.920Z,140
2022-07-25T09:51:36.939Z,140
2022-07-25T09:52:36.975Z,140
2022-07-25T09:53:36.701Z,140
2022-07-25T09:54:36.202Z,145
2022-07-25T09:55:36.219Z,145
2022-07-25T09:56:36.707Z,145
2022-07-25T09:57:36.476Z,145
2022-07-25T09:58:36.733Z,140
2022-07-25T09:59:36.735Z,140
2022-07-25T10:00:36.740Z,140
2022-07-25T10:01:37.523Z,140
2022-07-25T10:02:37.141Z,145
2022-07-25T10:03:36.759Z,145
2022-07-25T10:04:36.490Z,145
2022-07-25T10:05:36.503Z,145
2022-07-25T10:06:36.775Z,145
2022-07-25T10:07:40.553Z,145
2022-07-25T10:08:37.147Z,145
2022-07-25T10:09:36.934Z,145
2022-07-25T10:10:36.681Z,145
2022-07-25T10:11:36.911Z,145
2022-07-25T10:12:36.919Z,145
2022-07-25T10:13:37.202Z,145
2022-07-25T10:14:37.180Z,145
2022-07-25T10:15:37.196Z,140
2022-07-25T10:16:37.082Z,145
2022-07-25T10:17:36.940Z,145
2022-07-25T10:18:37.230Z,145
2022-07-25T10:19:36.992Z,145
2022-07-25T10:20:36.951Z,145
2022-07-25T10:21:37.974Z,140
2022-07-25T10:23:05.128Z,145
2022-07-25T10:23:36.966Z,140
2022-07-25T10:24:36.509Z,140
2022-07-25T10:25:36.761Z,145
2022-07-25T10:26:36.735Z,140
2022-07-25T10:27:37.894Z,140
2022-07-25T10:28:36.489Z,145
2022-07-25T10:29:37.277Z,140
2022-07-25T10:30:37.843Z,140
2022-07-25T10:31:36.788Z,140
2022-07-25T10:32:36.757Z,140
2022-07-25T10:33:37.100Z,140
2022-07-25T10:34:38.110Z,140
2022-07-25T10:35:37.044Z,140
2022-07-25T10:36:36.608Z,140
2022-07-25T10:37:37.049Z,140
2022-07-25T10:38:37.032Z,140
2022-07-25T10:39:37.037Z,140
2022-07-25T10:40:37.057Z,140
2022-07-25T10:41:36.817Z,140
2022-07-25T10:42:36.809Z,140
2022-07-25T10:43:37.069Z,135
2022-07-25T10:44:37.082Z,135
2022-07-25T10:45:42.708Z,135
2022-07-25T10:46:37.133Z,135
2022-07-25T10:47:36.853Z,135
2022-07-25T10:48:37.249Z,135
2022-07-25T10:51:04.144Z,140
2022-07-25T10:51:42.238Z,135
2022-07-25T10:52:37.234Z,135
2022-07-25T10:53:36.612Z,140
2022-07-25T10:54:36.882Z,135
2022-07-25T10:55:36.883Z,135
2022-07-25T10:56:36.629Z,135
2022-07-25T10:58:18.963Z,135
2022-07-25T10:58:37.408Z,135
2022-07-25T10:59:37.168Z,135
2022-07-25T11:00:36.648Z,135
2022-07-25T11:01:37.660Z,135
2022-07-25T11:02:37.631Z,135
2022-07-25T11:03:36.917Z,135
2022-07-25T11:04:36.941Z,135
2022-07-25T11:05:37.464Z,135
2022-07-25T11:06:37.455Z,135
2022-07-25T11:07:37.206Z,135
2022-07-25T11:08:36.703Z,135
2022-07-25T11:09:37.986Z,135
2022-07-25T11:10:36.960Z,135
2022-07-25T11:11:36.967Z,135
2022-07-25T11:12:37.234Z,135
2022-07-25T11:13:36.456Z,135
2022-07-25T11:14:37.240Z,135
2022-07-25T11:15:37.237Z,135
2022-07-25T11:16:37.977Z,130
2022-07-25T11:17:37.007Z,130
2022-07-25T11:18:37.009Z,130
2022-07-25T11:19:37.536Z,130
2022-07-25T11:20:37.589Z,130
2022-07-25T11:21:37.524Z,130
2022-07-25T11:22:37.031Z,130
2022-07-25T11:23:37.032Z,130
2022-07-25T11:24:37.298Z,135
2022-07-25T11:25:37.315Z,135
2022-07-25T11:26:37.296Z,130
2022-07-25T11:27:37.330Z,130
2022-07-25T11:28:37.064Z,130
2022-07-25T11:29:37.074Z,130
2022-07-25T11:30:37.337Z,130
2022-07-25T11:31:37.763Z,130
2022-07-25T11:32:37.951Z,135
2022-07-25T11:33:41.243Z,135
2022-07-25T11:34:42.504Z,130
2022-07-25T11:35:37.092Z,130
2022-07-25T11:36:37.629Z,135
2022-07-25T11:37:37.975Z,135
2022-07-25T11:38:37.617Z,135
2022-07-25T11:39:37.392Z,135
2022-07-25T11:40:36.877Z,130
2022-07-25T11:41:36.882Z,130
2022-07-25T11:42:37.133Z,130
2022-07-25T11:43:36.622Z,130
2022-07-25T11:44:37.139Z,130
2022-07-25T11:45:38.132Z,130
2022-07-25T11:46:37.493Z,130
2022-07-25T11:47:37.274Z,130
2022-07-25T11:48:37.231Z,130
2022-07-25T11:49:37.698Z,130
2022-07-25T11:50:37.685Z,130
2022-07-25T11:51:37.448Z,130
2022-07-25T11:52:37.242Z,130
2022-07-25T11:53:37.446Z,130
2022-07-25T11:54:37.198Z,130
2022-07-25T11:55:37.468Z,130
2022-07-25T11:56:53.459Z,130
2022-07-25T11:57:36.966Z,125
2022-07-25T11:58:36.979Z,125
2022-07-25T11:59:38.040Z,125
2022-07-25T12:00:37.220Z,125
2022-07-25T12:01:36.981Z,125
2022-07-25T12:02:38.929Z,125
2022-07-25T12:03:38.266Z,125
2022-07-25T12:04:37.265Z,125
2022-07-25T12:05:37.530Z,125
2022-07-25T12:06:37.268Z,125
2022-07-25T12:07:37.337Z,125
2022-07-25T12:08:37.542Z,125
2022-07-25T12:09:37.805Z,125
2022-07-25T12:10:37.542Z,125
2022-07-25T12:11:37.326Z,125
2022-07-25T12:12:37.332Z,130
2022-07-25T12:13:37.840Z,130
2022-07-25T12:14:43.773Z,125
2022-07-25T12:15:37.347Z,125
2022-07-25T12:16:38.080Z,125
2022-07-25T12:17:37.595Z,125
2022-07-25T12:18:37.343Z,125
2022-07-25T12:19:37.351Z,125
2022-07-25T12:20:37.343Z,125
2022-07-25T12:21:37.299Z,125
2022-07-25T12:22:37.614Z,125
2022-07-25T12:23:37.615Z,125
2022-07-25T12:24:37.640Z,125
2022-07-25T12:25:40.175Z,125
2022-07-25T12:26:37.385Z,125
2022-07-25T12:27:37.662Z,125
2022-07-25T12:28:37.683Z,125
2022-07-25T12:29:37.650Z,125
2022-07-25T12:30:38.080Z,125
2022-07-25T12:31:37.886Z,125
2022-07-25T12:32:37.680Z,125
2022-07-25T12:33:37.680Z,125
2022-07-25T12:34:37.704Z,125
2022-07-25T12:35:37.725Z,125
2022-07-25T12:36:37.969Z,125
2022-07-25T12:37:38.407Z,125
2022-07-25T12:38:37.493Z,130
2022-07-25T12:39:37.972Z,125
2022-07-25T12:40:37.985Z,125
2022-07-25T12:41:37.478Z,125
2022-07-25T12:42:37.490Z,125
2022-07-25T12:43:37.227Z,125
2022-07-25T12:44:38.758Z,125
2022-07-25T12:45:38.987Z,125
2022-07-25T12:46:38.820Z,125
2022-07-25T12:47:37.974Z,125
2022-07-25T12:48:38.937Z,125
2022-07-25T12:49:38.504Z,125
2022-07-25T12:50:38.001Z,125
2022-07-25T12:51:38.036Z,125
2022-07-25T12:52:38.523Z,125
2022-07-25T12:53:44.807Z,125
2022-07-25T12:54:40.759Z,125
2022-07-25T12:55:38.293Z,125
2022-07-25T12:56:38.550Z,125
2022-07-25T12:57:38.303Z,125
2022-07-25T12:58:38.553Z,125
2022-07-25T12:59:38.044Z,125
2022-07-25T13:00:38.079Z,125
2022-07-25T13:01:38.465Z,125
2022-07-25T13:02:38.667Z,125
2022-07-25T13:03:38.066Z,130
2022-07-25T13:04:38.325Z,130
2022-07-25T13:05:38.605Z,130
2022-07-25T13:06:43.828Z,130
2022-07-25T13:07:38.092Z,125
2022-07-25T13:08:38.368Z,125
2022-07-25T13:09:38.899Z,125
2022-07-25T13:10:38.886Z,125
2022-07-25T13:11:38.648Z,125
2022-07-25T13:12:38.659Z,125
2022-07-25T13:13:38.980Z,125
2022-07-25T13:14:38.671Z,125
2022-07-25T13:15:38.408Z,125
2022-07-25T13:16:39.138Z,125
2022-07-25T13:17:38.165Z,130
2022-07-25T13:18:38.517Z,130
2022-07-25T13:19:38.432Z,130
2022-07-25T13:20:38.964Z,130
2022-07-25T13:21:38.944Z,130
2022-07-25T13:22:38.704Z,130
2022-07-25T13:23:38.458Z,130
2022-07-25T13:24:38.462Z,130
2022-07-25T13:25:38.749Z,130
2022-07-25T13:26:38.486Z,130
2022-07-25T13:27:38.480Z,130
2022-07-25T13:28:38.505Z,130
2022-07-25T13:29:39.461Z,130
2022-07-25T13:30:39.444Z,130
2022-07-25T13:31:40.015Z,130
2022-07-25T13:32:38.818Z,130
2022-07-25T13:33:38.775Z,130
2022-07-25T13:34:38.529Z,130
2022-07-25T13:35:47.760Z,130
2022-07-25T13:36:38.531Z,130
2022-07-25T13:37:38.800Z,130
2022-07-25T13:38:39.568Z,130
2022-07-25T13:39:38.813Z,130
2022-07-25T13:40:38.815Z,130
2022-07-25T13:41:39.145Z,130
2022-07-25T13:42:38.566Z,130
2022-07-25T13:43:38.615Z,130
2022-07-25T13:44:38.586Z,130
2022-07-25T13:45:38.909Z,130
2022-07-25T13:46:39.103Z,130
2022-07-25T13:47:39.909Z,130
2022-07-25T13:48:41.313Z,130
2022-07-25T13:49:39.101Z,130
2022-07-25T13:50:38.734Z,130
2022-07-25T13:51:38.388Z,130
2022-07-25T13:52:38.914Z,130
2022-07-25T13:53:40.234Z,130
2022-07-25T13:54:38.905Z,135
2022-07-25T13:55:38.664Z,135
2022-07-25T13:56:38.864Z,135
2022-07-25T13:57:38.922Z,135
2022-07-25T13:58:38.968Z,140
2022-07-25T13:59:38.706Z,140
2022-07-25T14:00:39.282Z,140
2022-07-25T14:01:39.626Z,140
2022-07-25T14:02:39.329Z,145
2022-07-25T14:03:38.968Z,145
2022-07-25T14:04:39.959Z,145
2022-07-25T14:05:38.975Z,150
2022-07-25T14:06:39.250Z,150
2022-07-25T14:07:38.481Z,155
2022-07-25T14:08:38.476Z,155
2022-07-25T14:09:38.492Z,160
2022-07-25T14:10:39.035Z,165
2022-07-25T14:11:39.875Z,165
2022-07-25T14:12:39.025Z,165
2022-07-25T14:13:39.067Z,165
2022-07-25T14:14:38.539Z,170
2022-07-25T14:15:39.038Z,175
2022-07-25T14:16:39.217Z,180
2022-07-25T14:17:40.285Z,175
2022-07-25T14:18:38.616Z,175
2022-07-25T14:19:39.060Z,175
2022-07-25T14:20:38.568Z,175
2022-07-25T14:21:38.836Z,175
2022-07-25T14:22:39.088Z,180
2022-07-25T14:23:39.417Z,180